sensor_id;sensor_type;location;lat;lon;timestamp;P1;durP1;ratioP1;P2;durP2;ratioP2
18711;SDS011;9485;49.386;8.674;2022-08-20T00:05:15;5.97;;;5.38;;
18711;SDS011;9485;49.386;8.674;2022-08-20T00:10:41;5.75;;;5.18;;
18711;SDS011;9485;49.386;8.674;2022-08-20T00:16:05;5.82;;;5.15;;
18711;SDS011;9485;49.386;8.674;2022-08-20T00:21:28;6.85;;;5.72;;
18711;SDS011;9485;49.386;8.674;2022-08-20T00:26:49;5.85;;;5.20;;
18711;SDS011;9485;49.386;8.674;2022-08-20T00:32:09;5.88;;;5.30;;
18711;SDS011;9485;49.386;8.674;2022-08-20T00:37:31;6.93;;;6.22;;
18711;SDS011;9485;49.386;8.674;2022-08-20T00:42:52;6.70;;;5.57;;
18711;SDS011;9485;49.386;8.674;2022-08-20T00:48:16;6.63;;;5.97;;
18711;SDS011;9485;49.386;8.674;2022-08-20T00:53:38;8.68;;;6.15;;
18711;SDS011;9485;49.386;8.674;2022-08-20T00:59:00;7.43;;;6.40;;
18711;SDS011;9485;49.386;8.674;2022-08-20T01:04:24;6.78;;;5.97;;
18711;SDS011;9485;49.386;8.674;2022-08-20T01:09:50;7.15;;;5.72;;
18711;SDS011;9485;49.386;8.674;2022-08-20T01:15:11;8.15;;;5.97;;
18711;SDS011;9485;49.386;8.674;2022-08-20T01:20:36;22.75;;;8.20;;
18711;SDS011;9485;49.386;8.674;2022-08-20T01:26:03;24.80;;;8.95;;
18711;SDS011;9485;49.386;8.674;2022-08-20T01:31:30;7.70;;;6.22;;
18711;SDS011;9485;49.386;8.674;2022-08-20T01:36:56;6.33;;;5.70;;
18711;SDS011;9485;49.386;8.674;2022-08-20T01:42:19;6.93;;;6.27;;
18711;SDS011;9485;49.386;8.674;2022-08-20T01:47:48;5.77;;;5.23;;
18711;SDS011;9485;49.386;8.674;2022-08-20T01:53:10;5.57;;;5.00;;
18711;SDS011;9485;49.386;8.674;2022-08-20T01:58:41;6.07;;;4.77;;
18711;SDS011;9485;49.386;8.674;2022-08-20T02:04:08;4.90;;;4.30;;
18711;SDS011;9485;49.386;8.674;2022-08-20T02:09:31;4.93;;;4.43;;
18711;SDS011;9485;49.386;8.674;2022-08-20T02:14:55;4.15;;;3.55;;
18711;SDS011;9485;49.386;8.674;2022-08-20T02:20:17;3.22;;;2.90;;
18711;SDS011;9485;49.386;8.674;2022-08-20T02:25:46;2.83;;;2.53;;
18711;SDS011;9485;49.386;8.674;2022-08-20T02:31:09;2.30;;;2.10;;
18711;SDS011;9485;49.386;8.674;2022-08-20T02:36:30;2.30;;;2.10;;
18711;SDS011;9485;49.386;8.674;2022-08-20T02:41:51;2.10;;;1.90;;
18711;SDS011;9485;49.386;8.674;2022-08-20T02:47:14;2.07;;;1.70;;
18711;SDS011;9485;49.386;8.674;2022-08-20T02:52:35;3.55;;;2.03;;
18711;SDS011;9485;49.386;8.674;2022-08-20T02:57:55;2.15;;;1.63;;
18711;SDS011;9485;49.386;8.674;2022-08-20T03:03:19;1.85;;;1.70;;
18711;SDS011;9485;49.386;8.674;2022-08-20T03:08:40;1.55;;;1.45;;
18711;SDS011;9485;49.386;8.674;2022-08-20T03:14:02;1.35;;;1.25;;
18711;SDS011;9485;49.386;8.674;2022-08-20T03:19:25;2.05;;;1.50;;
18711;SDS011;9485;49.386;8.674;2022-08-20T03:24:46;1.58;;;1.48;;
18711;SDS011;9485;49.386;8.674;2022-08-20T03:30:07;1.40;;;1.30;;
18711;SDS011;9485;49.386;8.674;2022-08-20T03:35:32;2.15;;;1.90;;
18711;SDS011;9485;49.386;8.674;2022-08-20T03:40:56;1.67;;;1.50;;
18711;SDS011;9485;49.386;8.674;2022-08-20T03:46:16;2.10;;;1.40;;
18711;SDS011;9485;49.386;8.674;2022-08-20T03:51:38;1.58;;;1.48;;
18711;SDS011;9485;49.386;8.674;2022-08-20T03:56:59;1.30;;;1.20;;
18711;SDS011;9485;49.386;8.674;2022-08-20T04:02:21;1.70;;;1.55;;
18711;SDS011;9485;49.386;8.674;2022-08-20T04:07:44;1.70;;;1.38;;
18711;SDS011;9485;49.386;8.674;2022-08-20T04:13:05;2.55;;;1.38;;
18711;SDS011;9485;49.386;8.674;2022-08-20T04:18:26;1.67;;;1.45;;
18711;SDS011;9485;49.386;8.674;2022-08-20T04:23:48;1.90;;;1.60;;
18711;SDS011;9485;49.386;8.674;2022-08-20T04:29:10;2.13;;;1.77;;
18711;SDS011;9485;49.386;8.674;2022-08-20T04:34:30;1.83;;;1.27;;
18711;SDS011;9485;49.386;8.674;2022-08-20T04:39:53;1.92;;;1.73;;
18711;SDS011;9485;49.386;8.674;2022-08-20T04:45:27;2.13;;;1.63;;
18711;SDS011;9485;49.386;8.674;2022-08-20T04:50:48;2.58;;;1.50;;
18711;SDS011;9485;49.386;8.674;2022-08-20T04:56:13;2.08;;;1.50;;
18711;SDS011;9485;49.386;8.674;2022-08-20T05:01:33;1.70;;;1.55;;
18711;SDS011;9485;49.386;8.674;2022-08-20T05:06:54;2.50;;;2.22;;
18711;SDS011;9485;49.386;8.674;2022-08-20T05:12:16;3.70;;;1.60;;
18711;SDS011;9485;49.386;8.674;2022-08-20T05:17:37;1.80;;;1.67;;
18711;SDS011;9485;49.386;8.674;2022-08-20T05:23:00;1.70;;;1.60;;
18711;SDS011;9485;49.386;8.674;2022-08-20T05:28:23;1.90;;;1.70;;
18711;SDS011;9485;49.386;8.674;2022-08-20T05:33:50;1.65;;;1.55;;
18711;SDS011;9485;49.386;8.674;2022-08-20T05:39:13;2.15;;;1.80;;
18711;SDS011;9485;49.386;8.674;2022-08-20T05:44:36;1.85;;;1.73;;
18711;SDS011;9485;49.386;8.674;2022-08-20T05:49:58;2.00;;;1.80;;
18711;SDS011;9485;49.386;8.674;2022-08-20T05:55:20;2.25;;;1.95;;
18711;SDS011;9485;49.386;8.674;2022-08-20T06:00:43;2.50;;;2.30;;
18711;SDS011;9485;49.386;8.674;2022-08-20T06:06:04;1.95;;;1.80;;
18711;SDS011;9485;49.386;8.674;2022-08-20T06:11:26;1.95;;;1.75;;
18711;SDS011;9485;49.386;8.674;2022-08-20T06:16:48;2.10;;;1.90;;
18711;SDS011;9485;49.386;8.674;2022-08-20T06:22:09;1.90;;;1.80;;
18711;SDS011;9485;49.386;8.674;2022-08-20T06:27:30;2.08;;;1.73;;
18711;SDS011;9485;49.386;8.674;2022-08-20T06:32:52;2.70;;;2.05;;
18711;SDS011;9485;49.386;8.674;2022-08-20T06:38:13;1.83;;;1.73;;
18711;SDS011;9485;49.386;8.674;2022-08-20T06:43:34;2.20;;;2.00;;
18711;SDS011;9485;49.386;8.674;2022-08-20T06:48:56;2.28;;;2.08;;
18711;SDS011;9485;49.386;8.674;2022-08-20T06:54:17;3.63;;;2.08;;
18711;SDS011;9485;49.386;8.674;2022-08-20T06:59:38;1.98;;;1.88;;
18711;SDS011;9485;49.386;8.674;2022-08-20T07:05:00;2.58;;;2.38;;
18711;SDS011;9485;49.386;8.674;2022-08-20T07:10:21;2.42;;;2.22;;
18711;SDS011;9485;49.386;8.674;2022-08-20T07:15:43;2.05;;;1.90;;
18711;SDS011;9485;49.386;8.674;2022-08-20T07:21:05;3.63;;;2.33;;
18711;SDS011;9485;49.386;8.674;2022-08-20T07:26:26;3.55;;;2.08;;
18711;SDS011;9485;49.386;8.674;2022-08-20T07:31:47;2.15;;;1.98;;
18711;SDS011;9485;49.386;8.674;2022-08-20T07:37:26;2.08;;;1.88;;
18711;SDS011;9485;49.386;8.674;2022-08-20T07:42:47;2.33;;;2.13;;
18711;SDS011;9485;49.386;8.674;2022-08-20T07:48:09;2.33;;;2.13;;
18711;SDS011;9485;49.386;8.674;2022-08-20T07:53:34;2.75;;;2.50;;
18711;SDS011;9485;49.386;8.674;2022-08-20T07:58:57;2.42;;;2.22;;
18711;SDS011;9485;49.386;8.674;2022-08-20T08:04:19;3.13;;;2.08;;
18711;SDS011;9485;49.386;8.674;2022-08-20T08:09:43;3.00;;;2.70;;
18711;SDS011;9485;49.386;8.674;2022-08-20T08:15:07;2.67;;;2.38;;
18711;SDS011;9485;49.386;8.674;2022-08-20T08:20:33;2.55;;;2.35;;
18711;SDS011;9485;49.386;8.674;2022-08-20T08:25:59;2.53;;;2.13;;
18711;SDS011;9485;49.386;8.674;2022-08-20T08:31:21;2.45;;;2.15;;
18711;SDS011;9485;49.386;8.674;2022-08-20T08:36:43;3.40;;;2.67;;
18711;SDS011;9485;49.386;8.674;2022-08-20T08:42:05;2.92;;;2.72;;
18711;SDS011;9485;49.386;8.674;2022-08-20T08:47:43;2.50;;;2.30;;
18711;SDS011;9485;49.386;8.674;2022-08-20T08:53:04;2.80;;;2.25;;
18711;SDS011;9485;49.386;8.674;2022-08-20T08:58:27;2.80;;;2.60;;
18711;SDS011;9485;49.386;8.674;2022-08-20T09:03:49;2.97;;;2.78;;
18711;SDS011;9485;49.386;8.674;2022-08-20T09:09:14;2.45;;;2.10;;
18711;SDS011;9485;49.386;8.674;2022-08-20T09:14:41;2.03;;;1.85;;
18711;SDS011;9485;49.386;8.674;2022-08-20T09:20:04;3.50;;;2.13;;
18711;SDS011;9485;49.386;8.674;2022-08-20T09:25:27;2.20;;;1.55;;
18711;SDS011;9485;49.386;8.674;2022-08-20T09:30:49;2.20;;;1.27;;
18711;SDS011;9485;49.386;8.674;2022-08-20T09:36:10;1.55;;;1.45;;
18711;SDS011;9485;49.386;8.674;2022-08-20T09:41:31;1.73;;;1.40;;
18711;SDS011;9485;49.386;8.674;2022-08-20T09:46:53;1.48;;;1.30;;
18711;SDS011;9485;49.386;8.674;2022-08-20T09:52:16;1.65;;;1.55;;
18711;SDS011;9485;49.386;8.674;2022-08-20T09:57:42;1.70;;;1.60;;
18711;SDS011;9485;49.386;8.674;2022-08-20T10:03:04;1.95;;;1.70;;
18711;SDS011;9485;49.386;8.674;2022-08-20T10:08:25;1.50;;;1.40;;
18711;SDS011;9485;49.386;8.674;2022-08-20T10:13:46;1.40;;;1.30;;
18711;SDS011;9485;49.386;8.674;2022-08-20T10:19:08;1.55;;;1.38;;
18711;SDS011;9485;49.386;8.674;2022-08-20T10:24:28;1.02;;;1.02;;
18711;SDS011;9485;49.386;8.674;2022-08-20T10:29:49;1.52;;;1.42;;
18711;SDS011;9485;49.386;8.674;2022-08-20T10:35:11;0.93;;;0.93;;
18711;SDS011;9485;49.386;8.674;2022-08-20T10:40:32;1.20;;;1.10;;
18711;SDS011;9485;49.386;8.674;2022-08-20T10:45:53;1.90;;;1.65;;
18711;SDS011;9485;49.386;8.674;2022-08-20T10:51:15;2.13;;;1.92;;
18711;SDS011;9485;49.386;8.674;2022-08-20T10:56:35;2.50;;;1.60;;
18711;SDS011;9485;49.386;8.674;2022-08-20T11:01:56;2.28;;;1.38;;
18711;SDS011;9485;49.386;8.674;2022-08-20T11:07:19;1.52;;;1.13;;
18711;SDS011;9485;49.386;8.674;2022-08-20T11:12:50;1.00;;;1.00;;
18711;SDS011;9485;49.386;8.674;2022-08-20T11:18:11;1.50;;;1.27;;
18711;SDS011;9485;49.386;8.674;2022-08-20T11:23:34;0.88;;;0.88;;
18711;SDS011;9485;49.386;8.674;2022-08-20T11:28:54;0.85;;;0.80;;
18711;SDS011;9485;49.386;8.674;2022-08-20T11:34:15;1.02;;;0.90;;
18711;SDS011;9485;49.386;8.674;2022-08-20T11:39:37;0.80;;;0.80;;
18711;SDS011;9485;49.386;8.674;2022-08-20T11:44:58;0.60;;;0.60;;
18711;SDS011;9485;49.386;8.674;2022-08-20T11:50:19;0.40;;;0.40;;
18711;SDS011;9485;49.386;8.674;2022-08-20T11:55:42;3.22;;;1.30;;
18711;SDS011;9485;49.386;8.674;2022-08-20T12:01:03;0.88;;;0.88;;
18711;SDS011;9485;49.386;8.674;2022-08-20T12:06:23;0.68;;;0.68;;
18711;SDS011;9485;49.386;8.674;2022-08-20T12:11:45;0.55;;;0.55;;
18711;SDS011;9485;49.386;8.674;2022-08-20T12:17:06;0.60;;;0.60;;
18711;SDS011;9485;49.386;8.674;2022-08-20T12:22:27;0.70;;;0.68;;
18711;SDS011;9485;49.386;8.674;2022-08-20T12:27:50;0.73;;;0.73;;
18711;SDS011;9485;49.386;8.674;2022-08-20T12:33:10;0.73;;;0.70;;
18711;SDS011;9485;49.386;8.674;2022-08-20T12:38:32;0.80;;;0.60;;
18711;SDS011;9485;49.386;8.674;2022-08-20T12:43:54;0.60;;;0.60;;
18711;SDS011;9485;49.386;8.674;2022-08-20T12:49:14;0.52;;;0.52;;
18711;SDS011;9485;49.386;8.674;2022-08-20T12:54:35;1.38;;;0.60;;
18711;SDS011;9485;49.386;8.674;2022-08-20T12:59:57;0.40;;;0.40;;
18711;SDS011;9485;49.386;8.674;2022-08-20T13:05:22;0.70;;;0.70;;
18711;SDS011;9485;49.386;8.674;2022-08-20T13:10:43;0.57;;;0.52;;
18711;SDS011;9485;49.386;8.674;2022-08-20T13:16:05;0.43;;;0.43;;
18711;SDS011;9485;49.386;8.674;2022-08-20T13:21:26;0.40;;;0.40;;
18711;SDS011;9485;49.386;8.674;2022-08-20T13:26:46;0.40;;;0.30;;
18711;SDS011;9485;49.386;8.674;2022-08-20T13:32:10;0.43;;;0.40;;
18711;SDS011;9485;49.386;8.674;2022-08-20T13:37:31;0.57;;;0.45;;
18711;SDS011;9485;49.386;8.674;2022-08-20T13:42:52;0.68;;;0.68;;
18711;SDS011;9485;49.386;8.674;2022-08-20T13:48:15;0.70;;;0.70;;
18711;SDS011;9485;49.386;8.674;2022-08-20T13:53:35;0.77;;;0.70;;
18711;SDS011;9485;49.386;8.674;2022-08-20T13:58:55;1.15;;;0.60;;
18711;SDS011;9485;49.386;8.674;2022-08-20T14:04:17;0.75;;;0.65;;
18711;SDS011;9485;49.386;8.674;2022-08-20T14:09:38;4.82;;;1.05;;
18711;SDS011;9485;49.386;8.674;2022-08-20T14:15:01;0.88;;;0.73;;
18711;SDS011;9485;49.386;8.674;2022-08-20T14:20:25;0.70;;;0.70;;
18711;SDS011;9485;49.386;8.674;2022-08-20T14:25:48;0.70;;;0.70;;
18711;SDS011;9485;49.386;8.674;2022-08-20T14:31:09;1.00;;;1.00;;
18711;SDS011;9485;49.386;8.674;2022-08-20T14:36:30;1.10;;;1.00;;
18711;SDS011;9485;49.386;8.674;2022-08-20T14:41:51;1.30;;;1.13;;
18711;SDS011;9485;49.386;8.674;2022-08-20T14:47:12;1.00;;;0.77;;
18711;SDS011;9485;49.386;8.674;2022-08-20T14:52:37;0.80;;;0.80;;
18711;SDS011;9485;49.386;8.674;2022-08-20T14:57:58;0.80;;;0.80;;
18711;SDS011;9485;49.386;8.674;2022-08-20T15:03:20;1.20;;;1.08;;
18711;SDS011;9485;49.386;8.674;2022-08-20T15:08:44;3.20;;;1.30;;
18711;SDS011;9485;49.386;8.674;2022-08-20T15:14:05;3.00;;;1.40;;
18711;SDS011;9485;49.386;8.674;2022-08-20T15:19:26;1.92;;;1.65;;
18711;SDS011;9485;49.386;8.674;2022-08-20T15:24:48;2.55;;;1.77;;
18711;SDS011;9485;49.386;8.674;2022-08-20T15:30:10;2.03;;;1.83;;
18711;SDS011;9485;49.386;8.674;2022-08-20T15:35:34;2.00;;;1.80;;
18711;SDS011;9485;49.386;8.674;2022-08-20T15:40:56;2.15;;;1.95;;
18711;SDS011;9485;49.386;8.674;2022-08-20T15:46:18;2.60;;;2.00;;
18711;SDS011;9485;49.386;8.674;2022-08-20T15:51:41;2.88;;;2.03;;
18711;SDS011;9485;49.386;8.674;2022-08-20T15:57:09;4.38;;;1.58;;
18711;SDS011;9485;49.386;8.674;2022-08-20T16:02:38;9.13;;;2.50;;
18711;SDS011;9485;49.386;8.674;2022-08-20T16:08:32;1.30;;;1.17;;
18711;SDS011;9485;49.386;8.674;2022-08-20T16:14:23;1.05;;;0.95;;
18711;SDS011;9485;49.386;8.674;2022-08-20T16:19:50;3.80;;;1.08;;
18711;SDS011;9485;49.386;8.674;2022-08-20T16:25:19;0.93;;;0.88;;
18711;SDS011;9485;49.386;8.674;2022-08-20T16:30:42;1.77;;;1.30;;
18711;SDS011;9485;49.386;8.674;2022-08-20T16:36:10;1.98;;;1.27;;
18711;SDS011;9485;49.386;8.674;2022-08-20T16:41:43;1.77;;;1.27;;
18711;SDS011;9485;49.386;8.674;2022-08-20T16:47:12;1.15;;;0.90;;
18711;SDS011;9485;49.386;8.674;2022-08-20T16:52:37;2.05;;;1.30;;
18711;SDS011;9485;49.386;8.674;2022-08-20T16:58:02;1.83;;;1.42;;
18711;SDS011;9485;49.386;8.674;2022-08-20T17:03:26;1.55;;;1.23;;
18711;SDS011;9485;49.386;8.674;2022-08-20T17:08:49;1.80;;;1.25;;
18711;SDS011;9485;49.386;8.674;2022-08-20T17:14:11;2.88;;;1.30;;
18711;SDS011;9485;49.386;8.674;2022-08-20T17:19:35;2.30;;;1.30;;
18711;SDS011;9485;49.386;8.674;2022-08-20T17:24:55;2.35;;;1.30;;
18711;SDS011;9485;49.386;8.674;2022-08-20T17:30:18;7.00;;;1.40;;
18711;SDS011;9485;49.386;8.674;2022-08-20T17:35:49;4.57;;;1.17;;
18711;SDS011;9485;49.386;8.674;2022-08-20T17:41:16;1.52;;;1.40;;
18711;SDS011;9485;49.386;8.674;2022-08-20T17:46:42;2.42;;;1.45;;
18711;SDS011;9485;49.386;8.674;2022-08-20T17:52:10;1.60;;;1.50;;
18711;SDS011;9485;49.386;8.674;2022-08-20T17:57:36;3.25;;;1.63;;
18711;SDS011;9485;49.386;8.674;2022-08-20T18:03:08;7.25;;;3.05;;
18711;SDS011;9485;49.386;8.674;2022-08-20T18:08:40;4.95;;;3.70;;
18711;SDS011;9485;49.386;8.674;2022-08-20T18:14:24;5.03;;;3.65;;
18711;SDS011;9485;49.386;8.674;2022-08-20T18:20:09;7.60;;;4.00;;
18711;SDS011;9485;49.386;8.674;2022-08-20T18:25:46;5.97;;;3.75;;
18711;SDS011;9485;49.386;8.674;2022-08-20T18:31:21;4.63;;;3.78;;
18711;SDS011;9485;49.386;8.674;2022-08-20T18:36:53;4.53;;;3.53;;
18711;SDS011;9485;49.386;8.674;2022-08-20T18:42:23;4.53;;;3.40;;
18711;SDS011;9485;49.386;8.674;2022-08-20T18:47:48;5.45;;;2.78;;
18711;SDS011;9485;49.386;8.674;2022-08-20T18:53:10;5.78;;;2.47;;
18711;SDS011;9485;49.386;8.674;2022-08-20T18:58:55;2.20;;;1.70;;
18711;SDS011;9485;49.386;8.674;2022-08-20T19:04:22;2.47;;;1.73;;
18711;SDS011;9485;49.386;8.674;2022-08-20T19:09:54;3.05;;;1.55;;
18711;SDS011;9485;49.386;8.674;2022-08-20T19:15:37;3.65;;;1.70;;
18711;SDS011;9485;49.386;8.674;2022-08-20T19:21:03;1.50;;;1.30;;
18711;SDS011;9485;49.386;8.674;2022-08-20T19:26:25;1.85;;;1.35;;
18711;SDS011;9485;49.386;8.674;2022-08-20T19:31:55;3.28;;;2.63;;
18711;SDS011;9485;49.386;8.674;2022-08-20T19:37:19;5.05;;;2.75;;
18711;SDS011;9485;49.386;8.674;2022-08-20T19:42:42;2.70;;;2.03;;
18711;SDS011;9485;49.386;8.674;2022-08-20T19:48:08;2.90;;;2.25;;
18711;SDS011;9485;49.386;8.674;2022-08-20T19:53:45;3.88;;;2.78;;
18711;SDS011;9485;49.386;8.674;2022-08-20T19:59:08;3.25;;;2.47;;
18711;SDS011;9485;49.386;8.674;2022-08-20T20:04:38;4.20;;;2.72;;
18711;SDS011;9485;49.386;8.674;2022-08-20T20:10:03;2.50;;;1.90;;
18711;SDS011;9485;49.386;8.674;2022-08-20T20:15:27;4.15;;;2.33;;
18711;SDS011;9485;49.386;8.674;2022-08-20T20:20:50;2.40;;;1.90;;
18711;SDS011;9485;49.386;8.674;2022-08-20T20:26:16;2.53;;;2.15;;
18711;SDS011;9485;49.386;8.674;2022-08-20T20:31:41;3.47;;;2.03;;
18711;SDS011;9485;49.386;8.674;2022-08-20T20:37:11;2.58;;;1.95;;
18711;SDS011;9485;49.386;8.674;2022-08-20T20:42:54;2.15;;;1.95;;
18711;SDS011;9485;49.386;8.674;2022-08-20T20:48:20;3.05;;;2.05;;
18711;SDS011;9485;49.386;8.674;2022-08-20T20:53:47;2.70;;;2.28;;
18711;SDS011;9485;49.386;8.674;2022-08-20T20:59:09;3.67;;;2.50;;
18711;SDS011;9485;49.386;8.674;2022-08-20T21:04:29;3.05;;;2.35;;
18711;SDS011;9485;49.386;8.674;2022-08-20T21:09:52;3.35;;;2.35;;
18711;SDS011;9485;49.386;8.674;2022-08-20T21:15:15;2.72;;;2.00;;
18711;SDS011;9485;49.386;8.674;2022-08-20T21:20:36;3.15;;;2.17;;
18711;SDS011;9485;49.386;8.674;2022-08-20T21:25:58;4.93;;;3.63;;
18711;SDS011;9485;49.386;8.674;2022-08-20T21:31:20;4.25;;;2.90;;
18711;SDS011;9485;49.386;8.674;2022-08-20T21:36:44;4.93;;;2.65;;
18711;SDS011;9485;49.386;8.674;2022-08-20T21:42:07;4.10;;;2.67;;
18711;SDS011;9485;49.386;8.674;2022-08-20T21:47:33;4.00;;;2.45;;
18711;SDS011;9485;49.386;8.674;2022-08-20T21:52:54;4.10;;;2.30;;
18711;SDS011;9485;49.386;8.674;2022-08-20T21:58:16;2.40;;;2.20;;
18711;SDS011;9485;49.386;8.674;2022-08-20T22:03:38;6.28;;;2.47;;
18711;SDS011;9485;49.386;8.674;2022-08-20T22:09:00;4.05;;;2.53;;
18711;SDS011;9485;49.386;8.674;2022-08-20T22:14:22;4.50;;;2.97;;
18711;SDS011;9485;49.386;8.674;2022-08-20T22:19:43;2.88;;;2.30;;
18711;SDS011;9485;49.386;8.674;2022-08-20T22:25:04;2.15;;;1.85;;
18711;SDS011;9485;49.386;8.674;2022-08-20T22:30:27;2.92;;;2.10;;
18711;SDS011;9485;49.386;8.674;2022-08-20T22:35:49;2.88;;;2.33;;
18711;SDS011;9485;49.386;8.674;2022-08-20T22:41:13;2.30;;;2.10;;
18711;SDS011;9485;49.386;8.674;2022-08-20T22:46:37;2.88;;;1.77;;
18711;SDS011;9485;49.386;8.674;2022-08-20T22:51:59;3.30;;;2.40;;
18711;SDS011;9485;49.386;8.674;2022-08-20T22:57:20;2.47;;;2.25;;
18711;SDS011;9485;49.386;8.674;2022-08-20T23:02:43;2.60;;;2.15;;
18711;SDS011;9485;49.386;8.674;2022-08-20T23:08:13;2.40;;;2.10;;
18711;SDS011;9485;49.386;8.674;2022-08-20T23:13:35;3.78;;;2.25;;
18711;SDS011;9485;49.386;8.674;2022-08-20T23:18:57;4.43;;;2.72;;
18711;SDS011;9485;49.386;8.674;2022-08-20T23:24:19;3.20;;;2.40;;
18711;SDS011;9485;49.386;8.674;2022-08-20T23:29:40;2.97;;;2.53;;
18711;SDS011;9485;49.386;8.674;2022-08-20T23:35:02;2.97;;;2.40;;
18711;SDS011;9485;49.386;8.674;2022-08-20T23:40:26;2.87;;;2.40;;
18711;SDS011;9485;49.386;8.674;2022-08-20T23:45:47;3.08;;;2.58;;
18711;SDS011;9485;49.386;8.674;2022-08-20T23:51:09;3.20;;;2.63;;
18711;SDS011;9485;49.386;8.674;2022-08-20T23:56:30;4.27;;;2.40;;
